x

Prince Edward Pt (45135) Wave Buoy

5:00pm - Sun 23rd Nov 2014 All times are CST. -6 hours from GMT.

  • Sig Wave height 0.7ft
  • Peak Period 12s
  • Wind
    16mph, 20mph gusts
  • Sea Temp 47°f
  • Air Temp 50°f
  • Sea Pressure 1012mb
  • Prince Edward Pt
  • Prince Edward Pt

More Historic Weather Station data

Upgrade to MSW Pro to gain access to the past 30 days of data for over 8000 Wavebouys and Weather Stations around the globe.

Join Pro

Comparision Forecast

View Surf forecast
   
Sun 11/23 5:00pm 0.7ft 12s 16 20 mph 1012mb 47f 50f
4:00pm 1.6ft 3s 11 16 mph 1013.4mb 49f 50f
3:00pm 1.6ft 3s 16 18 mph 1014.1mb 49f 50f
2:00pm 1.3ft 3s 13 16 mph 1014.9mb 49f 50f
1:00pm 1.6ft 5s 13 16 mph 1015.3mb 49f 50f
12:00pm 1.6ft 5s 13 16 mph 1016.5mb 49f 51f
11:00am 1.6ft 5s 13
mph
1016.8mb 49f 50f
10:00am 1.6ft 5s 11 13 mph 1017.1mb 49f 50f
9:00am 2ft 5s 11 13 mph 1017mb 49f 50f
8:00am 2.5ft 5s 13 16 mph 1017.1mb 49f 50f
7:00am 2.5ft 5s 13 16 mph 1017mb 49f 50f
6:00am 3.5ft 6s 13 18 mph 1016.5mb 49f 50f
5:00am 4ft 6s 13 18 mph 1015.9mb 49f 49f
4:00am 4.5ft 6s 20 27 mph 1015.2mb 49f 50f
3:00am 4.5ft 5s 20 27 mph 1014.9mb 49f 49f
2:00am 5ft 6s 22 29 mph 1014.8mb 49f 49f
1:00am  -   -  22
mph
- - -
12:00am 4.5ft 7s 22 31 mph 1014mb 49f 49f
Sat 11/22 11:00pm 4ft 6s 18 22 mph 1014.3mb 49f 48f
10:00pm 4.5ft 6s 18 22 mph 1014.2mb 49f 48f
9:00pm 4.5ft 7s 18 22 mph 1014.4mb 49f 48f
8:00pm 4.5ft 6s 18 22 mph 1014.4mb 49f 47f
7:00pm 4.5ft 6s 18 22 mph 1014.6mb 49f 47f
6:00pm 5ft 6s 20 25 mph 1014.1mb 49f 47f
5:00pm 5ft 6s 22 27 mph 1014.2mb 49f 47f
4:00pm 4.5ft 5s 25 29 mph 1014.3mb 49f 47f
3:00pm 4.5ft 4s 22 27 mph 1014.8mb 49f 45f
2:00pm 4.5ft 4s 22 27 mph 1014.9mb 49f 43f
1:00pm 4.5ft 4s 22 29 mph 1015.6mb 49f 41f
12:00pm 4.5ft 5s 22 29 mph 1016.5mb 49f 41f
10:00am 4.5ft 5s 22 27 mph 1020.1mb 49f 38f
9:00am 4.5ft 5s 22 27 mph 1021.7mb 49f 36f
7:00am 4.5ft 5s 22 31 mph 1023.8mb 49f 34f
6:00am 5ft 6s 22 29 mph 1024.4mb 49f 34f
5:00am 5ft 6s 25 29 mph 1024.9mb 49f 33f
4:00am 5ft 6s 25 31 mph 1025.9mb 48f 33f
3:00am 5ft 5s 25 29 mph 1026.4mb 48f 33f
2:00am 5.5ft 7s 25 29 mph 1027.1mb 48f 32f
1:00am 6ft 6s 25 31 mph 1027.6mb 47f 32f
12:00am 6ft 7s 27 31 mph 1028.2mb 47f 32f
Fri 11/21 11:00pm 6.5ft 6s 22 29 mph 1028.2mb 47f 33f
10:00pm 6ft 6s 25 31 mph 1028.5mb 47f 33f
9:00pm 6.5ft 6s 25 31 mph 1029.1mb 47f 33f
8:00pm  -   -  27
mph
1029.2mb - 33f
7:00pm 5ft 6s 27 34 mph 1029.5mb 47f 33f
6:00pm 4.5ft 5s 22 31 mph 1029.5mb 47f 33f
5:00pm 3.5ft 4s 25 29 mph 1029.6mb 47f 32f
4:00pm 2.5ft 4s 20 27 mph 1029.7mb 47f 31f
3:00pm 2.5ft 3s 20 25 mph 1029.7mb 47f 30f
2:00pm 2ft 6s 16 20 mph 1029.3mb 47f 29f
1:00pm 2ft 6s 16 20 mph 1028.9mb 47f 28f
12:00pm 2ft 6s 13 18 mph 1028.6mb 45f 27f
11:00am 2.5ft 7s 13 18 mph 1028.2mb 45f 26f
10:00am 3ft 7s 11 16 mph 1028.3mb 44f 24f
9:00am 3.5ft 7s 11 16 mph 1027.6mb 44f 24f
8:00am 4.5ft 7s 18 25 mph 1026mb 44f 23f
6:00am 4.5ft 8s 18 25 mph 1022.8mb 44f 25f
4:00am 6ft 8s 20 25 mph 1018.9mb 44f 26f
3:00am 7ft 8s 22 29 mph 1017.3mb 44f 28f